Time;durP1;ratioP1;P1;durP2;ratioP2;P2;SDS_P1;SDS_P2;PMS_P1;PMS_P2;Temp;Humidity;BMP_temperature;BMP_pressure;BME280_temperature;BME280_humidity;BME280_pressure;Samples;Min_cycle;Max_cycle;Signal;HPM_P1;HPM_P2
2023/09/20 00:02:16;;;;;;;5.10;2.00;;;;;;;17.18;63.88;100260.53;5095465;28;20209;-74
2023/09/20 00:04:47;;;;;;;2.93;1.90;;;;;;;17.18;64.03;100268.63;5095266;28;20255;-74
2023/09/20 00:07:16;;;;;;;5.30;2.20;;;;;;;17.18;64.08;100264.06;5095335;28;20213;-75
2023/09/20 00:09:45;;;;;;;5.27;2.30;;;;;;;17.16;63.87;100262.59;5095311;28;20248;-75
2023/09/20 00:12:13;;;;;;;4.50;2.10;;;;;;;17.15;64.27;100272.59;5094949;28;20209;-75
2023/09/20 00:14:42;;;;;;;3.83;1.90;;;;;;;17.12;64.45;100275.72;5095202;28;20316;-75
2023/09/20 00:17:11;;;;;;;4.50;2.10;;;;;;;17.14;64.73;100272.81;5094838;28;20636;-74
2023/09/20 00:19:42;;;;;;;4.67;2.13;;;;;;;17.11;64.78;100271.38;5095125;28;20207;-74
2023/09/20 00:22:13;;;;;;;5.67;2.27;;;;;;;17.10;64.49;100263.44;5095101;28;20189;-74
2023/09/20 00:24:41;;;;;;;5.97;2.30;;;;;;;17.10;64.80;100266.16;5095109;28;20311;-74
2023/09/20 00:27:09;;;;;;;7.60;2.20;;;;;;;17.13;64.63;100269.25;5094895;28;20315;-74
2023/09/20 00:29:38;;;;;;;3.43;1.97;;;;;;;17.12;65.15;100258.69;5094661;28;20681;-74
2023/09/20 00:32:07;;;;;;;4.97;2.03;;;;;;;17.14;64.93;100267.41;5094530;28;20641;-73
2023/09/20 00:34:37;;;;;;;5.53;2.00;;;;;;;17.16;64.42;100259.88;5094388;28;20251;-74
2023/09/20 00:37:06;;;;;;;4.43;2.10;;;;;;;17.14;64.91;100267.41;5094784;28;20662;-75
2023/09/20 00:39:34;;;;;;;4.97;1.90;;;;;;;17.14;65.36;100261.97;5094746;28;20205;-74
2023/09/20 00:42:04;;;;;;;6.47;2.60;;;;;;;17.14;64.76;100256.56;5094645;28;20299;-74
2023/09/20 00:44:33;;;;;;;3.97;2.00;;;;;;;17.14;65.36;100264.69;5094591;28;20315;-74
2023/09/20 00:47:03;;;;;;;4.70;2.10;;;;;;;17.11;64.82;100262.41;5094446;28;20644;-74
2023/09/20 00:49:32;;;;;;;6.20;2.10;;;;;;;17.13;65.11;100260.31;5094669;28;20200;-74
2023/09/20 00:52:04;;;;;;;3.83;2.40;;;;;;;17.13;65.57;100265.72;5094535;28;20292;-74
2023/09/20 00:54:33;;;;;;;5.47;2.40;;;;;;;17.12;65.32;100264.09;5094188;28;20673;-74
2023/09/20 00:57:02;;;;;;;6.70;2.33;;;;;;;17.11;65.57;100257.84;5094467;28;20208;-74
2023/09/20 00:59:32;;;;;;;5.40;2.00;;;;;;;17.13;65.31;100273.84;5094346;28;20254;-74
2023/09/20 01:02:01;;;;;;;7.03;2.00;;;;;;;17.14;66.08;100261.97;5094342;28;20204;-74
2023/09/20 01:04:30;;;;;;;4.67;1.97;;;;;;;17.13;66.04;100271.13;5093895;28;20709;-74
2023/09/20 01:06:59;;;;;;;4.60;2.27;;;;;;;17.15;65.81;100269.06;5094116;28;20220;-74
2023/09/20 01:09:29;;;;;;;6.53;2.30;;;;;;;17.14;65.58;100259.28;5093926;28;20743;-74
2023/09/20 01:11:58;;;;;;;5.53;2.13;;;;;;;17.14;66.25;100267.41;5093886;28;20228;-74
2023/09/20 01:14:27;;;;;;;6.87;2.40;;;;;;;17.16;66.04;100268.00;5094038;28;20357;-74
2023/09/20 01:16:55;;;;;;;5.73;2.30;;;;;;;17.15;65.87;100274.47;5094079;28;20207;-74
2023/09/20 01:19:24;;;;;;;3.93;2.00;;;;;;;17.18;65.74;100279.44;5093942;28;20209;-74
2023/09/20 01:21:54;;;;;;;5.57;2.43;;;;;;;17.17;66.31;100277.78;5093606;28;20228;-74
2023/09/20 01:24:24;;;;;;;7.00;2.50;;;;;;;17.19;66.20;100278.41;5093765;28;20255;-74
2023/09/20 01:26:57;;;;;;;4.97;2.20;;;;;;;17.20;66.29;100271.94;5094143;28;20224;-74
2023/09/20 01:29:26;;;;;;;5.80;2.00;;;;;;;17.21;66.52;100265.50;5093924;28;20194;-74
2023/09/20 01:32:02;;;;;;;5.17;2.20;;;;;;;17.21;66.05;100268.19;5093478;28;20274;-74
2023/09/20 01:34:31;;;;;;;4.17;2.20;;;;;;;17.23;67.00;100264.22;5093385;28;20235;-74
2023/09/20 01:37:03;;;;;;;8.20;2.20;;;;;;;17.24;66.74;100267.75;5093781;28;20250;-74
2023/09/20 01:39:33;;;;;;;4.37;2.27;;;;;;;17.25;65.79;100269.44;5093737;28;20189;-74
2023/09/20 01:42:02;;;;;;;5.73;1.87;;;;;;;17.26;65.81;100276.50;5093683;28;20216;-74
2023/09/20 01:44:30;;;;;;;5.27;2.23;;;;;;;17.26;66.56;100273.78;5093673;28;20584;-74
2023/09/20 01:47:02;;;;;;;8.47;2.30;;;;;;;17.25;66.94;100274.84;5093578;28;20650;-74
2023/09/20 01:49:34;;;;;;;4.93;2.40;;;;;;;17.24;66.53;100274.00;5093676;28;20193;-74
2023/09/20 01:52:07;;;;;;;6.03;2.10;;;;;;;17.22;67.05;100268.00;5093656;28;20185;-74
2023/09/20 01:54:37;;;;;;;8.90;2.30;;;;;;;17.21;66.99;100270.91;5093252;28;20702;-74
2023/09/20 01:57:06;;;;;;;2.83;1.77;;;;;;;17.19;67.65;100278.41;5093651;28;20185;-74
2023/09/20 01:59:34;;;;;;;5.80;2.27;;;;;;;17.17;67.11;100270.50;5093553;28;20236;-74
2023/09/20 02:02:04;;;;;;;5.77;2.47;;;;;;;17.17;67.38;100277.78;5094283;28;20204;-74
2023/09/20 02:04:32;;;;;;;3.83;2.20;;;;;;;17.14;67.31;100278.22;5094822;28;20326;-74
2023/09/20 02:07:03;;;;;;;5.13;2.40;;;;;;;17.12;68.44;100274.91;5093557;28;20769;-73
2023/09/20 02:09:31;;;;;;;6.77;2.13;;;;;;;17.09;68.37;100275.31;5093998;28;20204;-73
2023/09/20 02:11:59;;;;;;;5.47;2.20;;;;;;;17.11;67.94;100267.81;5093440;28;20746;-73
2023/09/20 02:14:28;;;;;;;7.53;2.23;;;;;;;17.09;68.56;100267.19;5093893;28;20256;-73
2023/09/20 02:16:56;;;;;;;4.53;2.27;;;;;;;17.10;68.47;100266.16;5093014;28;20677;-74
2023/09/20 02:19:25;;;;;;;9.27;2.20;;;;;;;17.09;68.04;100270.72;5093224;28;20200;-74
2023/09/20 02:21:54;;;;;;;4.80;2.30;;;;;;;17.09;68.65;100272.59;5093278;28;20296;-74
2023/09/20 02:24:25;;;;;;;5.83;2.27;;;;;;;17.10;68.90;100271.56;5092877;28;20228;-74
2023/09/20 02:26:53;;;;;;;5.10;2.60;;;;;;;17.10;68.36;100268.88;5093218;28;20250;-74
2023/09/20 02:29:22;;;;;;;5.27;2.37;;;;;;;17.09;69.02;100264.50;5092933;28;20735;-74
2023/09/20 02:31:52;;;;;;;9.83;2.80;;;;;;;17.09;68.78;100268.03;5093258;28;20265;-74
2023/09/20 02:34:20;;;;;;;6.33;2.23;;;;;;;17.07;68.71;100253.91;5094870;28;20287;-75
2023/09/20 02:36:49;;;;;;;4.57;2.30;;;;;;;17.05;69.37;100258.72;5096925;28;20697;-74
2023/09/20 02:39:18;;;;;;;8.37;2.83;;;;;;;17.05;69.07;100257.88;5097157;28;20228;-74
2023/09/20 02:41:48;;;;;;;4.47;2.20;;;;;;;17.07;68.94;100261.19;5097162;28;20262;-74
2023/09/20 02:44:16;;;;;;;6.30;2.70;;;;;;;17.07;68.77;100256.59;5097120;28;20263;-74
2023/09/20 02:46:48;;;;;;;5.60;2.20;;;;;;;17.06;68.88;100254.09;5096947;28;20215;-74
2023/09/20 02:49:16;;;;;;;4.80;2.47;;;;;;;17.08;68.75;100252.03;5096935;28;20216;-74
2023/09/20 02:51:45;;;;;;;5.90;2.50;;;;;;;17.05;69.58;100249.75;5096568;28;20554;-74
2023/09/20 02:54:15;;;;;;;4.63;2.20;;;;;;;17.06;69.25;100254.09;5097080;28;20233;-74
2023/09/20 02:56:44;;;;;;;9.37;2.40;;;;;;;17.07;69.55;100250.38;5096719;28;20298;-74
2023/09/20 02:59:15;;;;;;;7.17;2.40;;;;;;;17.08;69.39;100257.44;5096738;28;20631;-74
2023/09/20 03:01:44;;;;;;;6.43;2.30;;;;;;;17.08;69.46;100257.44;5096359;28;20674;-74
2023/09/20 03:04:13;;;;;;;7.13;2.53;;;;;;;17.07;69.61;100250.38;5096580;28;20311;-74
2023/09/20 03:06:44;;;;;;;4.03;2.47;;;;;;;17.07;68.91;100245.78;5096589;28;20208;-74
2023/09/20 03:09:13;;;;;;;6.30;2.73;;;;;;;17.10;69.10;100244.53;5096474;28;20296;-74
2023/09/20 03:11:41;;;;;;;6.43;2.60;;;;;;;17.11;68.97;100241.63;5096467;28;20208;-74
2023/09/20 03:14:10;;;;;;;4.23;2.30;;;;;;;17.11;69.48;100247.03;5096372;28;20311;-74
2023/09/20 03:16:43;;;;;;;3.20;2.27;;;;;;;17.14;68.97;100245.75;5096409;28;20212;-74
2023/09/20 03:19:14;;;;;;;4.87;2.20;;;;;;;17.15;69.34;100244.72;5097073;28;20232;-74
2023/09/20 03:21:43;;;;;;;6.13;2.63;;;;;;;17.16;69.18;100246.34;5096357;28;20193;-74
2023/09/20 03:24:12;;;;;;;8.30;2.83;;;;;;;17.16;69.10;100244.50;5096424;28;20228;-74
2023/09/20 03:26:42;;;;;;;5.83;2.30;;;;;;;17.17;69.03;100239.91;5095899;28;20300;-74
2023/09/20 03:29:11;;;;;;;5.27;2.60;;;;;;;17.17;69.13;100245.31;5096096;28;20247;-74
2023/09/20 03:31:42;;;;;;;6.93;2.43;;;;;;;17.19;68.52;100237.84;5096998;28;20215;-75
2023/09/20 03:34:13;;;;;;;6.53;2.20;;;;;;;17.18;68.76;100241.59;5095636;28;20287;-75
2023/09/20 03:36:43;;;;;;;4.83;2.40;;;;;;;17.18;68.85;100241.59;5096117;28;20247;-74
2023/09/20 03:39:13;;;;;;;5.00;2.60;;;;;;;17.18;68.96;100233.47;5096348;28;20232;-74
2023/09/20 03:41:44;;;;;;;5.73;2.73;;;;;;;17.18;69.03;100236.16;5096414;28;20196;-74
2023/09/20 03:44:14;;;;;;;5.23;2.00;;;;;;;17.15;69.52;100232.03;5095556;28;20229;-74
2023/09/20 03:46:44;;;;;;;6.67;2.40;;;;;;;17.15;68.88;100242.00;5095173;28;20701;-74
2023/09/20 03:49:13;;;;;;;4.37;2.20;;;;;;;17.12;69.50;100237.84;5095810;28;20244;-74
2023/09/20 03:51:42;;;;;;;7.07;2.40;;;;;;;17.11;69.09;100241.63;5095796;28;20204;-74
2023/09/20 03:54:11;;;;;;;4.40;2.20;;;;;;;17.12;69.28;100247.84;5095694;28;20311;-74
2023/09/20 03:56:41;;;;;;;5.87;2.20;;;;;;;17.12;69.57;100235.13;5095730;28;20292;-74
2023/09/20 03:59:12;;;;;;;4.93;2.50;;;;;;;17.13;69.47;100233.28;5095984;28;20211;-74
2023/09/20 04:01:40;;;;;;;4.27;2.77;;;;;;;17.12;69.24;100239.75;5095643;28;20188;-74
2023/09/20 04:04:11;;;;;;;4.43;2.27;;;;;;;17.12;69.65;100227.03;5095203;28;20774;-74
2023/09/20 04:06:39;;;;;;;4.47;2.30;;;;;;;17.12;69.14;100240.53;5096356;28;20219;-74
2023/09/20 04:09:10;;;;;;;6.23;2.37;;;;;;;17.12;69.05;100231.63;5095412;28;20225;-74
2023/09/20 04:11:40;;;;;;;5.77;2.17;;;;;;;17.12;69.47;100223.50;5095542;28;20257;-74
2023/09/20 04:14:09;;;;;;;7.00;2.30;;;;;;;17.12;69.99;100227.03;5095363;28;20401;-74
2023/09/20 04:16:39;;;;;;;6.23;2.53;;;;;;;17.13;69.92;100227.84;5095379;28;20208;-74
2023/09/20 04:19:09;;;;;;;5.90;2.33;;;;;;;17.13;69.70;100228.69;5094991;28;20662;-74
2023/09/20 04:21:38;;;;;;;7.23;2.70;;;;;;;17.13;69.91;100227.84;5095249;28;20204;-74
2023/09/20 04:24:07;;;;;;;5.37;2.43;;;;;;;17.13;70.08;100227.84;5095189;28;20278;-74
2023/09/20 04:26:35;;;;;;;4.60;2.40;;;;;;;17.13;69.40;100230.56;5095028;28;20295;-74
2023/09/20 04:29:04;;;;;;;5.60;2.37;;;;;;;17.14;69.84;100226.81;5094997;28;20232;-74
2023/09/20 04:31:33;;;;;;;7.07;2.47;;;;;;;17.14;69.50;100229.53;5095082;28;20593;-75
2023/09/20 04:34:02;;;;;;;4.87;2.20;;;;;;;17.14;69.98;100226.81;5094503;28;20320;-74
2023/09/20 04:36:31;;;;;;;6.63;2.27;;;;;;;17.15;69.86;100225.78;5094540;28;20243;-75
2023/09/20 04:39:00;;;;;;;5.90;2.03;;;;;;;17.15;69.94;100214.97;5094628;28;20240;-74
2023/09/20 04:41:28;;;;;;;5.23;2.30;;;;;;;17.14;69.60;100218.72;5094753;28;20247;-75
2023/09/20 04:43:57;;;;;;;5.50;2.87;;;;;;;17.13;69.94;100217.03;5093974;28;20228;-75
2023/09/20 04:46:27;;;;;;;6.47;2.30;;;;;;;17.13;70.17;100217.03;5093715;28;20210;-74
2023/09/20 04:48:56;;;;;;;7.50;2.47;;;;;;;17.13;69.65;100219.75;5094416;28;20247;-74
2023/09/20 04:51:24;;;;;;;7.13;2.60;;;;;;;17.10;70.00;100215.59;5094854;28;20296;-74
2023/09/20 04:53:55;;;;;;;5.30;2.70;;;;;;;17.07;70.41;100217.91;5095043;28;20225;-75
2023/09/20 04:56:23;;;;;;;5.67;2.40;;;;;;;17.06;70.43;100216.22;5097480;28;20224;-74
2023/09/20 04:58:57;;;;;;;7.13;2.83;;;;;;;17.04;70.65;100223.75;5100291;28;20268;-74
2023/09/20 05:01:26;;;;;;;8.50;2.93;;;;;;;17.01;70.48;100216.06;5099085;28;20209;-74
2023/09/20 05:03:55;;;;;;;6.57;2.80;;;;;;;16.99;70.59;100220.84;5100607;28;20250;-73
2023/09/20 05:06:24;;;;;;;5.90;2.57;;;;;;;16.97;71.18;100222.94;5102929;28;20254;-73
2023/09/20 05:08:54;;;;;;;5.47;2.70;;;;;;;16.93;71.35;100221.72;5095283;28;20256;-74
2023/09/20 05:11:24;;;;;;;5.33;2.30;;;;;;;16.90;71.39;100224.84;5094313;28;20204;-74
2023/09/20 05:13:54;;;;;;;6.57;2.30;;;;;;;16.89;71.28;100218.59;5093805;28;20707;-74
2023/09/20 05:16:22;;;;;;;5.03;2.50;;;;;;;16.87;71.86;100211.75;5094169;28;20209;-74
2023/09/20 05:18:51;;;;;;;7.73;2.73;;;;;;;16.80;72.21;100219.06;5094089;28;20208;-74
2023/09/20 05:21:20;;;;;;;8.17;2.77;;;;;;;16.76;71.82;100215.94;5093801;28;20757;-74
2023/09/20 05:23:49;;;;;;;6.77;2.60;;;;;;;16.75;72.75;100216.19;5093628;28;20698;-74
2023/09/20 05:26:19;;;;;;;4.77;2.70;;;;;;;16.71;72.85;100213.06;5094061;28;20227;-74
2023/09/20 05:28:47;;;;;;;6.27;2.60;;;;;;;16.67;72.25;100220.78;5093901;28;20228;-74
2023/09/20 05:31:17;;;;;;;6.47;2.20;;;;;;;16.68;72.75;100219.72;5093704;28;20657;-74
2023/09/20 05:33:45;;;;;;;7.33;2.90;;;;;;;16.63;72.73;100227.63;5093565;28;20279;-74
2023/09/20 05:36:14;;;;;;;7.83;2.63;;;;;;;16.60;73.73;100232.63;5093886;28;20299;-74
2023/09/20 05:38:42;;;;;;;6.20;2.60;;;;;;;16.59;72.70;100231.81;5093804;28;20228;-74
2023/09/20 05:41:12;;;;;;;5.30;2.67;;;;;;;16.60;73.08;100221.81;5093772;28;20260;-74
2023/09/20 05:43:43;;;;;;;9.57;3.03;;;;;;;16.59;73.66;100228.25;5093704;28;20228;-74
2023/09/20 05:46:13;;;;;;;9.10;2.83;;;;;;;16.56;73.84;100225.97;5093769;28;20211;-74
2023/09/20 05:48:44;;;;;;;7.57;2.63;;;;;;;16.52;73.41;100225.53;5093721;28;20337;-74
2023/09/20 05:51:17;;;;;;;9.03;2.80;;;;;;;16.54;73.56;100226.16;5093702;28;20193;-74
2023/09/20 05:53:45;;;;;;;6.27;2.93;;;;;;;16.59;73.82;100221.00;5093603;28;20307;-74
2023/09/20 05:56:14;;;;;;;7.80;2.83;;;;;;;16.62;73.60;100225.13;5093605;28;20211;-74
2023/09/20 05:58:44;;;;;;;6.40;2.70;;;;;;;16.57;73.89;100228.50;5093631;28;20200;-74
2023/09/20 06:01:13;;;;;;;8.93;2.60;;;;;;;16.58;73.26;100227.44;5093283;28;20617;-74
2023/09/20 06:03:42;;;;;;;8.47;2.60;;;;;;;16.63;72.90;100227.63;5093142;28;20727;-74
2023/09/20 06:06:10;;;;;;;8.40;2.97;;;;;;;16.60;74.04;100236.16;5093514;28;20247;-74
2023/09/20 06:08:39;;;;;;;9.03;3.00;;;;;;;16.59;73.60;100236.38;5094398;28;20296;-74
2023/09/20 06:11:08;;;;;;;11.57;3.20;;;;;;;16.57;73.89;100239.31;5097638;28;20282;-74
2023/09/20 06:13:38;;;;;;;4.47;2.67;;;;;;;16.58;73.45;100224.72;5097298;28;20580;-74
2023/09/20 06:16:09;;;;;;;6.40;2.80;;;;;;;16.59;73.32;100226.41;5097669;28;20265;-74
2023/09/20 06:18:39;;;;;;;8.70;3.37;;;;;;;16.56;73.62;100237.63;5097609;28;20189;-74
2023/09/20 06:21:23;;;;;;;5.90;2.43;;;;;;;16.48;74.03;100242.38;5097605;28;20195;-74
2023/09/20 06:23:52;;;;;;;4.97;2.50;;;;;;;16.47;73.55;100233.44;5097439;28;20224;-74
2023/09/20 06:26:20;;;;;;;4.30;2.40;;;;;;;16.43;74.14;100236.78;5097437;28;20328;-74
2023/09/20 06:28:50;;;;;;;8.07;2.80;;;;;;;16.40;74.88;100235.34;5097368;28;20215;-74
2023/09/20 06:31:20;;;;;;;9.50;2.57;;;;;;;16.37;74.32;100233.03;5097344;28;20385;-74
2023/09/20 06:33:49;;;;;;;6.43;2.50;;;;;;;16.38;74.67;100229.31;5097350;28;20241;-74
2023/09/20 06:36:19;;;;;;;7.80;2.70;;;;;;;16.34;74.39;100228.06;5097257;28;20215;-74
2023/09/20 06:38:49;;;;;;;8.50;2.60;;;;;;;16.34;74.88;100233.47;5097265;28;20223;-74
2023/09/20 06:41:20;;;;;;;8.83;2.70;;;;;;;16.39;74.84;100230.97;5097386;28;20204;-74
2023/09/20 06:43:52;;;;;;;5.67;2.40;;;;;;;16.46;73.99;100226.41;5097108;28;20254;-74
2023/09/20 06:46:24;;;;;;;6.50;2.60;;;;;;;16.51;74.16;100229.28;5096711;28;20251;-74
2023/09/20 06:48:55;;;;;;;6.43;2.70;;;;;;;16.58;74.13;100240.09;5097034;28;20216;-74
2023/09/20 06:51:24;;;;;;;5.33;2.20;;;;;;;16.62;73.43;100241.34;5096905;28;20205;-74
2023/09/20 06:53:53;;;;;;;6.30;2.37;;;;;;;16.66;73.26;100238.03;5096920;28;20657;-74
2023/09/20 06:56:21;;;;;;;6.43;2.33;;;;;;;16.69;73.25;100240.28;5096921;28;20240;-74
2023/09/20 06:58:50;;;;;;;6.07;2.30;;;;;;;16.73;73.00;100236.13;5096534;28;20736;-74
2023/09/20 07:01:20;;;;;;;6.27;2.43;;;;;;;16.75;73.47;100229.69;5096485;28;20572;-74
2023/09/20 07:03:50;;;;;;;6.20;2.87;;;;;;;16.80;73.64;100227.16;5096742;28;20221;-74
2023/09/20 07:06:18;;;;;;;6.90;2.33;;;;;;;16.84;73.16;100231.09;5096478;28;20675;-74
2023/09/20 07:08:47;;;;;;;5.97;2.57;;;;;;;16.86;72.71;100235.25;5096867;28;20208;-74
2023/09/20 07:11:16;;;;;;;4.77;2.63;;;;;;;16.90;73.07;100239.19;5097987;28;20588;-74
2023/09/20 07:13:45;;;;;;;6.80;2.73;;;;;;;16.94;72.80;100232.31;5096759;28;20274;-74
2023/09/20 07:16:14;;;;;;;5.20;2.80;;;;;;;16.99;72.54;100237.06;5096544;28;20205;-74
2023/09/20 07:18:44;;;;;;;6.37;2.40;;;;;;;17.04;72.93;100239.97;5096511;28;20208;-74
2023/09/20 07:21:14;;;;;;;6.40;2.50;;;;;;;17.07;72.41;100226.84;5095414;28;20189;-74
2023/09/20 07:23:42;;;;;;;7.97;2.43;;;;;;;17.11;73.27;100230.78;5096021;28;20782;-74
2023/09/20 07:26:12;;;;;;;6.60;2.10;;;;;;;17.19;71.63;100244.06;5096432;28;20201;-74
2023/09/20 07:28:42;;;;;;;6.57;2.50;;;;;;;17.25;72.06;100236.97;5096317;28;20212;-74
2023/09/20 07:31:11;;;;;;;7.80;2.40;;;;;;;17.31;71.89;100238.81;5096269;28;20213;-74
2023/09/20 07:33:41;;;;;;;6.03;2.17;;;;;;;17.32;72.49;100243.19;5095689;28;20233;-74
2023/09/20 07:36:11;;;;;;;7.70;2.80;;;;;;;17.34;71.64;100251.06;5096240;28;20315;-74
2023/09/20 07:38:42;;;;;;;5.77;2.60;;;;;;;17.43;71.32;100247.09;5096203;28;20196;-74
2023/09/20 07:41:13;;;;;;;6.00;2.80;;;;;;;17.47;71.02;100235.59;5096057;28;20200;-74
2023/09/20 07:43:43;;;;;;;6.17;2.30;;;;;;;17.52;71.53;100240.34;5095938;28;20236;-74
2023/09/20 07:46:15;;;;;;;7.10;2.40;;;;;;;17.63;71.20;100237.00;5095990;28;20254;-74
2023/09/20 07:48:48;;;;;;;6.20;2.70;;;;;;;17.74;70.58;100236.28;5095939;28;20242;-74
2023/09/20 07:51:24;;;;;;;5.93;2.80;;;;;;;17.80;70.25;100245.41;5096304;28;20249;-62
2023/09/20 07:53:54;;;;;;;5.70;2.50;;;;;;;17.86;70.29;100239.94;5095720;28;20282;-71
2023/09/20 07:56:24;;;;;;;6.33;2.80;;;;;;;17.85;69.46;100226.63;5095786;28;20539;-72
2023/09/20 07:58:53;;;;;;;8.07;2.87;;;;;;;17.88;70.31;100224.31;5095698;28;20209;-76
2023/09/20 08:01:29;;;;;;;4.57;2.57;;;;;;;17.90;70.27;100224.09;5095688;28;20201;-76
2023/09/20 08:03:59;;;;;;;4.13;2.20;;;;;;;17.87;69.85;100221.84;5095855;28;20266;-75
2023/09/20 08:06:33;;;;;;;4.70;2.40;;;;;;;17.89;70.10;100208.88;5095638;28;20193;-76
2023/09/20 08:09:02;;;;;;;6.77;2.90;;;;;;;17.96;70.53;100207.78;5095562;28;20284;-75
2023/09/20 08:11:32;;;;;;;5.47;2.23;;;;;;;18.07;70.04;100219.78;5095395;28;20228;-76
2023/09/20 08:14:02;;;;;;;3.20;2.00;;;;;;;18.09;70.42;100228.50;5095453;28;20220;-75
2023/09/20 08:16:33;;;;;;;8.97;2.67;;;;;;;18.15;69.51;100216.81;5095670;28;20271;-62
2023/09/20 08:19:04;;;;;;;5.00;2.10;;;;;;;18.18;69.36;100227.19;5095155;28;20197;-61
2023/09/20 08:21:35;;;;;;;3.10;2.10;;;;;;;18.22;69.86;100223.81;5095249;28;20240;-63
2023/09/20 09:00:24;;;;;;;6.90;2.50;;;;;;;18.90;67.74;100236.50;5094464;28;20196;-74
2023/09/20 09:02:56;;;;;;;5.13;2.40;;;;;;;18.94;68.90;100245.84;5093866;28;20277;-74
2023/09/20 09:05:27;;;;;;;6.03;2.80;;;;;;;18.99;68.37;100230.53;5092498;28;20262;-74
2023/09/20 09:07:57;;;;;;;5.53;2.20;;;;;;;19.15;67.08;100234.50;5093385;28;20188;-74
2023/09/20 09:10:28;;;;;;;4.53;1.93;;;;;;;19.20;66.95;100234.66;5093901;28;20205;-74
2023/09/20 09:12:56;;;;;;;4.63;2.53;;;;;;;19.21;66.52;100239.03;5094187;28;20319;-74
2023/09/20 09:15:27;;;;;;;6.00;2.40;;;;;;;19.21;66.80;100239.03;5094223;28;20236;-74
2023/09/20 09:17:56;;;;;;;5.73;2.33;;;;;;;19.27;66.10;100242.72;5094187;28;20189;-75
2023/09/20 09:20:26;;;;;;;3.70;2.07;;;;;;;19.35;65.59;100239.69;5094172;28;20215;-74
2023/09/20 09:22:55;;;;;;;4.87;2.43;;;;;;;19.50;65.40;100235.53;5093916;28;20604;-74
2023/09/20 09:25:31;;;;;;;4.67;2.30;;;;;;;19.74;64.15;100234.53;5094100;28;20208;-74
2023/09/20 09:28:01;;;;;;;6.27;2.87;;;;;;;19.90;64.11;100224.09;5094002;28;20280;-73
2023/09/20 09:30:33;;;;;;;3.63;2.30;;;;;;;20.09;63.64;100237.34;5094057;28;20557;-73
2023/09/20 09:33:04;;;;;;;6.23;2.57;;;;;;;20.05;62.25;100233.44;5093767;28;20262;-72
2023/09/20 09:35:34;;;;;;;4.57;2.57;;;;;;;20.18;63.11;100230.47;5094034;28;20224;-72
2023/09/20 09:38:22;;;;;;;3.40;2.07;;;;;;;20.15;62.67;100233.66;5093931;28;20189;-72
2023/09/20 09:40:56;;;;;;;4.67;2.10;;;;;;;20.13;62.06;100222.22;5093910;28;20212;-73
2023/09/20 09:43:27;;;;;;;5.83;2.20;;;;;;;20.05;61.98;100227.16;5093190;28;20714;-73
2023/09/20 09:46:04;;;;;;;4.20;2.17;;;;;;;20.05;62.02;100228.00;5093397;28;20582;-73
2023/09/20 09:48:34;;;;;;;2.17;1.90;;;;;;;20.11;62.67;100224.31;5093733;28;20195;-73
2023/09/20 09:51:05;;;;;;;2.27;1.97;;;;;;;20.10;61.74;100221.88;5093583;28;20232;-73
2023/09/20 09:53:36;;;;;;;4.00;2.00;;;;;;;20.11;62.22;100228.94;5093562;28;20232;-73
2023/09/20 09:56:07;;;;;;;3.80;2.30;;;;;;;20.20;62.34;100222.09;5093647;28;20192;-74
2023/09/20 09:58:36;;;;;;;5.00;2.00;;;;;;;20.21;61.92;100230.00;5093600;28;20216;-74
2023/09/20 10:01:05;;;;;;;5.03;2.10;;;;;;;20.26;62.63;100221.16;5093200;28;20586;-74
2023/09/20 10:03:40;;;;;;;5.70;2.23;;;;;;;20.28;62.23;100219.03;5093482;28;20289;-73
2023/09/20 10:06:12;;;;;;;7.67;2.30;;;;;;;20.35;62.15;100219.75;5093539;28;20185;-73
2023/09/20 10:08:43;;;;;;;3.20;2.07;;;;;;;20.47;61.33;100220.59;5093481;28;20212;-73
2023/09/20 10:11:14;;;;;;;4.17;2.20;;;;;;;20.64;61.93;100218.81;5093439;28;20196;-73
2023/09/20 10:13:44;;;;;;;3.60;1.80;;;;;;;20.73;60.52;100217.38;5093061;28;20646;-73
2023/09/20 10:16:12;;;;;;;3.93;2.30;;;;;;;20.87;60.22;100233.44;5093429;28;20258;-73
2023/09/20 10:18:55;;;;;;;5.67;2.50;;;;;;;20.98;60.16;100224.41;5093041;28;20208;-73
2023/09/20 10:21:30;;;;;;;2.63;1.83;;;;;;;21.10;59.58;100220.63;5093410;28;20246;-73
2023/09/20 10:24:04;;;;;;;3.73;2.00;;;;;;;21.24;59.35;100210.28;5093267;28;20280;-73
2023/09/20 10:26:38;;;;;;;5.30;2.07;;;;;;;21.31;58.09;100208.25;5093390;28;20193;-73
2023/09/20 10:29:23;;;;;;;4.17;2.07;;;;;;;21.24;57.63;100215.72;5092962;28;20189;-73
2023/09/20 10:31:55;;;;;;;3.03;1.80;;;;;;;21.34;57.53;100218.63;5093229;28;20299;-73
2023/09/20 10:34:26;;;;;;;4.00;2.00;;;;;;;21.42;57.67;100220.97;5092891;28;20323;-73
2023/09/20 10:36:55;;;;;;;2.80;2.10;;;;;;;21.46;57.44;100211.25;5094049;28;20213;-73
2023/09/20 10:39:24;;;;;;;2.03;1.80;;;;;;;21.57;57.62;100213.09;5093134;28;20236;-74
2023/09/20 10:41:55;;;;;;;4.03;1.93;;;;;;;21.63;58.31;100209.41;5092875;28;20296;-74
2023/09/20 10:44:31;;;;;;;8.27;2.10;;;;;;;21.75;57.59;100198.41;5093102;28;20255;-73
2023/09/20 10:47:05;;;;;;;3.33;1.90;;;;;;;21.81;57.91;100202.91;5093174;28;20192;-74
2023/09/20 10:49:49;;;;;;;3.23;2.00;;;;;;;21.99;57.63;100201.84;5092792;28;20726;-74
2023/09/20 10:52:50;;;;;;;2.37;1.80;;;;;;;22.01;55.56;100202.44;5093041;28;20205;-74
2023/09/20 10:55:38;;;;;;;2.90;1.70;;;;;;;22.10;55.72;100204.50;5094497;28;20200;-74
2023/09/20 10:58:08;;;;;;;3.33;1.90;;;;;;;22.12;55.71;100190.63;5096525;28;20697;-74
2023/09/20 11:00:37;;;;;;;2.80;2.20;;;;;;;22.12;56.52;100196.09;5097140;28;20201;-74
2023/09/20 11:03:07;;;;;;;4.63;2.10;;;;;;;22.10;55.69;100198.22;5096367;28;20652;-74
2023/09/20 11:05:36;;;;;;;2.63;1.87;;;;;;;22.00;56.08;100203.50;5096718;28;20193;-74
2023/09/20 11:08:08;;;;;;;2.93;1.70;;;;;;;22.06;57.50;100195.16;5096335;28;20620;-74
2023/09/20 11:10:39;;;;;;;4.97;1.90;;;;;;;22.07;56.63;100191.38;5096290;28;20193;-74
2023/09/20 11:13:14;;;;;;;5.47;2.00;;;;;;;22.03;56.25;100192.09;5096486;28;20225;-74
2023/09/20 11:15:48;;;;;;;3.73;1.63;;;;;;;21.98;56.85;100183.84;5096243;28;20192;-74
2023/09/20 11:18:19;;;;;;;3.57;1.70;;;;;;;21.97;56.80;100184.91;5096510;28;20281;-74
2023/09/20 11:20:49;;;;;;;5.50;2.10;;;;;;;22.05;56.94;100187.25;5096468;28;20221;-74
2023/09/20 11:23:17;;;;;;;2.37;1.70;;;;;;;22.15;56.87;100190.13;5096339;28;20224;-74
2023/09/20 11:25:48;;;;;;;2.20;1.50;;;;;;;22.18;56.47;100189.63;5096017;28;20739;-73
2023/09/20 11:28:19;;;;;;;3.70;1.80;;;;;;;22.13;57.19;100179.47;5096289;28;20239;-73
2023/09/20 11:30:52;;;;;;;5.03;1.70;;;;;;;22.07;56.65;100195.97;5095946;28;20639;-73
2023/09/20 11:33:28;;;;;;;3.30;1.70;;;;;;;21.94;57.13;100196.31;5095894;28;20311;-73
2023/09/20 11:35:57;;;;;;;3.63;2.17;;;;;;;21.92;57.57;100198.47;5096146;28;20215;-73
2023/09/20 11:38:27;;;;;;;2.77;1.80;;;;;;;22.00;57.60;100198.06;5096112;28;20240;-73
2023/09/20 11:40:55;;;;;;;3.80;1.77;;;;;;;21.85;57.18;100192.34;5096040;28;20630;-73
2023/09/20 11:43:30;;;;;;;2.90;2.07;;;;;;;21.97;58.02;100204.00;5095615;28;20311;-73
2023/09/20 11:45:58;;;;;;;3.30;2.00;;;;;;;21.98;57.67;100197.47;5095981;28;20218;-73
2023/09/20 11:48:30;;;;;;;3.27;2.13;;;;;;;21.92;57.91;100199.28;5095985;28;20223;-73
2023/09/20 11:50:58;;;;;;;4.17;1.87;;;;;;;21.98;57.76;100197.47;5095541;28;20200;-73
2023/09/20 11:53:30;;;;;;;2.57;1.70;;;;;;;22.10;58.02;100201.78;5095651;28;20289;-73
2023/09/20 11:56:01;;;;;;;3.53;1.90;;;;;;;22.26;57.46;100197.38;5095759;28;20200;-73
2023/09/20 11:58:34;;;;;;;4.13;1.90;;;;;;;22.36;57.02;100192.09;5095738;28;20244;-73
2023/09/20 12:01:04;;;;;;;3.00;1.97;;;;;;;22.43;56.70;100208.28;5095703;28;20190;-73
2023/09/20 12:03:33;;;;;;;3.40;2.00;;;;;;;22.42;56.70;100202.00;5095602;28;20635;-74
2023/09/20 12:06:03;;;;;;;2.67;1.80;;;;;;;22.52;56.68;100209.50;5095175;28;20205;-74
2023/09/20 12:08:32;;;;;;;3.17;1.67;;;;;;;22.68;56.27;100200.47;5095465;28;20220;-74
2023/09/20 12:11:01;;;;;;;3.77;2.17;;;;;;;22.82;56.33;100209.09;5095490;28;20205;-74
2023/09/20 12:13:29;;;;;;;6.17;2.07;;;;;;;22.93;56.18;100211.72;5095260;28;20323;-75
2023/09/20 12:15:59;;;;;;;3.90;1.80;;;;;;;23.08;55.51;100211.91;5095373;28;20283;-75